Time;durP1;ratioP1;P1;durP2;ratioP2;P2;SDS_P1;SDS_P2;PMS_P1;PMS_P2;Temp;Humidity;BMP_temperature;BMP_pressure;BME280_temperature;BME280_humidity;BME280_pressure;Samples;Min_cycle;Max_cycle;Signal;HPM_P1;HPM_P2
2023/03/10 00:01:29;;;;;;;3.70;1.00;;;18.40;38.20;;;;;;6211232;23;20122;-87
2023/03/10 00:03:55;;;;;;;3.58;0.80;;;18.40;38.20;;;;;;6185506;23;20141;-87
2023/03/10 00:06:23;;;;;;;2.60;0.63;;;18.30;38.20;;;;;;6184654;23;20181;-87
2023/03/10 00:08:50;;;;;;;5.03;0.60;;;18.40;38.30;;;;;;6210024;23;20145;-87
2023/03/10 00:11:16;;;;;;;3.22;0.90;;;18.30;38.30;;;;;;6184757;23;20152;-87
2023/03/10 00:13:41;;;;;;;2.70;0.73;;;18.40;38.20;;;;;;6185306;23;20146;-87
2023/03/10 00:16:22;;;;;;;1.27;0.52;;;18.40;38.20;;;;;;6184990;23;20231;-87
2023/03/10 00:18:48;;;;;;;1.48;0.70;;;18.40;38.20;;;;;;6185669;23;20141;-88
2023/03/10 00:21:15;;;;;;;2.20;0.73;;;18.40;38.20;;;;;;6184648;23;20195;-88
2023/03/10 00:23:40;;;;;;;4.25;0.85;;;18.40;38.20;;;;;;6185026;23;20145;-87
2023/03/10 00:26:11;;;;;;;1.65;0.60;;;18.40;38.20;;;;;;6209693;23;20133;-87
2023/03/10 00:28:37;;;;;;;1.30;0.70;;;18.40;38.30;;;;;;6184895;23;20142;-87
2023/03/10 00:31:05;;;;;;;1.60;0.90;;;18.30;38.30;;;;;;6184299;23;20153;-87
2023/03/10 00:33:33;;;;;;;1.33;0.60;;;18.30;38.30;;;;;;6184975;23;20146;-87
2023/03/10 00:36:08;;;;;;;2.72;0.95;;;18.30;38.30;;;;;;6184337;23;20191;-87
2023/03/10 00:38:36;;;;;;;2.25;0.90;;;18.30;38.30;;;;;;6187045;23;20144;-87
2023/03/10 00:41:03;;;;;;;1.00;0.70;;;18.30;38.20;;;;;;6184157;23;20149;-88
2023/03/10 00:43:30;;;;;;;3.45;0.90;;;18.30;38.30;;;;;;6185740;23;20145;-87
2023/03/10 00:45:57;;;;;;;0.90;0.63;;;18.20;38.30;;;;;;6185036;23;20144;-88
2023/03/10 00:48:24;;;;;;;2.33;0.68;;;18.30;38.40;;;;;;6209439;23;20125;-87
2023/03/10 00:50:51;;;;;;;3.38;0.77;;;18.30;38.40;;;;;;6209055;23;20153;-87
2023/03/10 00:53:20;;;;;;;1.52;0.77;;;18.30;38.40;;;;;;6184109;23;20137;-87
2023/03/10 00:56:04;;;;;;;1.50;0.70;;;18.30;38.50;;;;;;6159056;23;20153;-87
2023/03/10 00:58:31;;;;;;;1.60;0.77;;;18.30;38.40;;;;;;6234247;23;20130;-88
2023/03/10 01:00:57;;;;;;;2.58;0.90;;;18.30;38.40;;;;;;6184316;23;20227;-87
2023/03/10 01:03:24;;;;;;;3.85;0.80;;;18.20;38.40;;;;;;6184293;23;20141;-87
2023/03/10 01:05:49;;;;;;;1.90;0.77;;;18.30;38.40;;;;;;6183911;23;20142;-87
2023/03/10 01:08:16;;;;;;;2.08;0.60;;;18.30;38.40;;;;;;6232775;23;20196;-87
2023/03/10 01:10:42;;;;;;;2.05;0.75;;;18.30;38.40;;;;;;6207791;23;20149;-87
2023/03/10 01:13:13;;;;;;;1.67;0.80;;;18.20;38.40;;;;;;6183546;23;20151;-87
2023/03/10 01:15:43;;;;;;;2.63;0.75;;;18.20;38.40;;;;;;6182955;23;20149;-87
2023/03/10 01:18:10;;;;;;;1.95;0.82;;;18.30;39.10;;;;;;6232938;23;20149;-87
2023/03/10 01:20:36;;;;;;;0.90;0.70;;;18.20;38.50;;;;;;6183215;23;20154;-86
2023/03/10 01:23:02;;;;;;;2.00;0.73;;;18.20;38.50;;;;;;6183372;23;20208;-87
2023/03/10 01:25:27;;;;;;;1.27;0.93;;;18.20;38.50;;;;;;6148619;23;20456;-87
2023/03/10 01:27:54;;;;;;;1.40;0.60;;;18.20;38.60;;;;;;6172658;23;20485;-87
2023/03/10 01:30:21;;;;;;;2.35;0.60;;;18.20;38.50;;;;;;6173138;23;20151;-87
2023/03/10 01:32:48;;;;;;;2.22;0.80;;;18.20;38.50;;;;;;6147987;23;20150;-87
2023/03/10 01:35:18;;;;;;;0.93;0.60;;;18.20;38.50;;;;;;6148762;23;20154;-87
2023/03/10 01:37:45;;;;;;;1.52;0.50;;;18.20;38.60;;;;;;6172554;23;20196;-88
2023/03/10 01:40:15;;;;;;;2.33;0.60;;;18.20;39.30;;;;;;6148040;23;20147;-87
2023/03/10 01:42:42;;;;;;;1.35;0.60;;;18.10;38.60;;;;;;6148164;23;20161;-87
2023/03/10 01:45:29;;;;;;;2.22;0.88;;;18.10;38.60;;;;;;6123754;23;20177;-88
2023/03/10 01:47:57;;;;;;;1.88;0.68;;;18.10;38.60;;;;;;6152638;23;20192;-87
2023/03/10 01:50:24;;;;;;;1.30;0.70;;;18.20;38.50;;;;;;6147910;23;20490;-87
2023/03/10 01:52:55;;;;;;;1.75;0.60;;;18.20;38.60;;;;;;6172398;23;20131;-87
2023/03/10 01:55:24;;;;;;;1.90;0.70;;;18.20;38.70;;;;;;6129879;23;20139;-87
2023/03/10 01:57:52;;;;;;;1.20;0.70;;;18.10;38.60;;;;;;6209062;23;20232;-88
2023/03/10 02:00:23;;;;;;;2.47;0.80;;;18.20;38.50;;;;;;6233002;23;20607;-87
2023/03/10 02:03:02;;;;;;;2.75;0.85;;;18.10;38.60;;;;;;6177029;23;20150;-87
2023/03/10 02:05:28;;;;;;;3.72;0.73;;;18.10;38.70;;;;;;6179084;23;20181;-87
2023/03/10 02:07:54;;;;;;;1.05;0.70;;;18.20;38.70;;;;;;6177847;23;20197;-88
2023/03/10 02:10:21;;;;;;;3.90;0.80;;;18.20;38.60;;;;;;6177843;23;20242;-87
2023/03/10 02:12:47;;;;;;;1.45;0.70;;;18.10;38.60;;;;;;6202284;23;20228;-88
2023/03/10 02:15:13;;;;;;;2.38;0.70;;;18.10;38.70;;;;;;6152893;23;20161;-87
2023/03/10 02:17:39;;;;;;;2.88;0.60;;;18.10;38.60;;;;;;6176908;23;20170;-87
2023/03/10 02:20:43;;;;;;;1.58;0.70;;;18.20;38.80;;;;;;6152794;23;20150;-87
2023/03/10 02:23:09;;;;;;;1.17;0.70;;;18.10;38.80;;;;;;6142823;23;20150;-87
2023/03/10 02:25:44;;;;;;;2.67;0.82;;;18.10;38.70;;;;;;6168095;23;20157;-87
2023/03/10 02:28:12;;;;;;;1.50;0.50;;;18.10;38.70;;;;;;6165897;23;20174;-87
2023/03/10 02:30:42;;;;;;;1.15;0.60;;;18.20;38.70;;;;;;6141784;23;20155;-87
2023/03/10 02:33:23;;;;;;;1.48;0.75;;;18.10;38.70;;;;;;6142881;23;20207;-87
2023/03/10 02:35:51;;;;;;;2.60;0.80;;;18.10;38.70;;;;;;6142553;23;20139;-87
2023/03/10 02:38:18;;;;;;;1.02;0.70;;;18.10;38.70;;;;;;6166601;23;20152;-88
2023/03/10 02:40:48;;;;;;;0.93;0.70;;;18.10;38.70;;;;;;6185846;23;20150;-87
2023/03/10 02:43:19;;;;;;;2.00;0.80;;;18.10;38.70;;;;;;6177005;23;20169;-87
2023/03/10 02:45:47;;;;;;;1.45;0.65;;;18.10;38.80;;;;;;6177285;23;20196;-87
2023/03/10 02:48:15;;;;;;;1.20;0.63;;;18.10;38.70;;;;;;6201760;23;20157;-87
2023/03/10 02:50:43;;;;;;;2.28;0.57;;;18.10;38.80;;;;;;6201911;23;20131;-87
2023/03/10 02:53:12;;;;;;;1.35;0.80;;;18.10;38.80;;;;;;6206172;23;20584;-88
2023/03/10 02:55:39;;;;;;;2.15;0.70;;;18.10;38.90;;;;;;6209047;23;20138;-87
2023/03/10 02:58:05;;;;;;;0.80;0.70;;;18.10;38.90;;;;;;6208880;23;20169;-87
2023/03/10 03:00:31;;;;;;;0.75;0.70;;;18.10;38.90;;;;;;6259300;22;20228;-87
2023/03/10 03:02:57;;;;;;;1.98;0.80;;;18.10;38.90;;;;;;6258124;23;20130;-87
2023/03/10 03:05:24;;;;;;;1.17;0.88;;;18.00;38.80;;;;;;6233690;23;20134;-87
2023/03/10 03:07:50;;;;;;;1.73;0.63;;;18.00;38.80;;;;;;6208339;23;20196;-87
2023/03/10 03:10:17;;;;;;;0.82;0.70;;;18.00;38.90;;;;;;6209627;23;20629;-87
2023/03/10 03:12:49;;;;;;;1.30;0.60;;;18.00;38.80;;;;;;6209856;23;20192;-87
2023/03/10 03:15:15;;;;;;;2.15;0.75;;;18.00;38.90;;;;;;6259706;23;20141;-87
2023/03/10 03:17:42;;;;;;;2.08;0.73;;;18.00;38.90;;;;;;6209986;23;20169;-87
2023/03/10 03:20:13;;;;;;;0.77;0.60;;;18.00;38.90;;;;;;6235482;23;20137;-87
2023/03/10 03:22:41;;;;;;;1.08;0.70;;;18.10;38.90;;;;;;6212910;23;20144;-87
2023/03/10 03:25:08;;;;;;;1.38;0.70;;;18.00;38.90;;;;;;6210963;23;20141;-87
2023/03/10 03:27:34;;;;;;;1.02;0.80;;;18.00;38.90;;;;;;6260422;23;20137;-87
2023/03/10 03:30:04;;;;;;;2.67;0.68;;;18.00;38.90;;;;;;6209633;23;20194;-87
2023/03/10 03:32:30;;;;;;;0.65;0.65;;;18.00;39.00;;;;;;6210802;23;20148;-87
2023/03/10 03:34:58;;;;;;;1.73;0.75;;;18.00;38.90;;;;;;6210073;23;20138;-87
2023/03/10 03:37:24;;;;;;;3.30;1.02;;;18.00;38.90;;;;;;6211129;23;20357;-87
2023/03/10 03:39:50;;;;;;;1.38;0.70;;;18.00;39.00;;;;;;6210878;23;20141;-87
2023/03/10 03:42:18;;;;;;;2.38;0.63;;;18.00;38.90;;;;;;6234884;23;20169;-87
2023/03/10 03:44:44;;;;;;;2.88;0.80;;;18.00;39.00;;;;;;6209795;23;20134;-87
2023/03/10 03:47:16;;;;;;;1.13;0.70;;;18.10;38.90;;;;;;6235318;23;20422;-87
2023/03/10 03:49:44;;;;;;;1.45;0.80;;;18.00;38.90;;;;;;6260001;23;20134;-87
2023/03/10 03:52:09;;;;;;;0.65;0.60;;;18.00;38.90;;;;;;6209340;23;20149;-87
2023/03/10 03:54:36;;;;;;;1.58;0.75;;;18.00;38.90;;;;;;6234680;23;20209;-87
2023/03/10 03:57:03;;;;;;;3.03;0.70;;;18.00;38.90;;;;;;6209224;23;20169;-87
2023/03/10 03:59:29;;;;;;;1.17;0.80;;;18.00;38.90;;;;;;6234907;23;20160;-87
2023/03/10 04:01:59;;;;;;;3.08;0.70;;;18.00;38.90;;;;;;6208487;23;20145;-87
2023/03/10 04:04:25;;;;;;;1.85;0.65;;;18.00;38.90;;;;;;6233986;23;20134;-87
2023/03/10 04:06:51;;;;;;;3.80;0.77;;;18.00;38.90;;;;;;6210215;23;20201;-87
2023/03/10 04:09:19;;;;;;;2.92;0.85;;;17.90;38.90;;;;;;6234441;23;20617;-87
2023/03/10 04:11:46;;;;;;;1.05;0.52;;;18.00;38.90;;;;;;6234121;23;20137;-87
2023/03/10 04:14:11;;;;;;;1.10;0.70;;;18.00;39.00;;;;;;6209489;23;20157;-87
2023/03/10 04:16:38;;;;;;;2.05;0.60;;;18.00;39.00;;;;;;6234217;23;20530;-87
2023/03/10 04:19:06;;;;;;;0.90;0.52;;;17.90;38.90;;;;;;6259167;23;20217;-87
2023/03/10 04:21:33;;;;;;;2.30;0.85;;;18.00;39.00;;;;;;6233988;23;20216;-87
2023/03/10 04:24:03;;;;;;;1.00;0.60;;;17.90;39.00;;;;;;6234479;23;20129;-87
2023/03/10 04:26:29;;;;;;;0.82;0.60;;;17.90;39.00;;;;;;6209377;23;20569;-87
2023/03/10 04:28:56;;;;;;;1.52;0.80;;;17.90;39.10;;;;;;6209393;23;20271;-87
2023/03/10 04:31:23;;;;;;;1.52;0.70;;;17.90;39.00;;;;;;6208911;23;20153;-87
2023/03/10 04:33:49;;;;;;;0.73;0.60;;;17.90;39.10;;;;;;6209091;23;20149;-87
2023/03/10 04:36:17;;;;;;;2.17;0.70;;;17.90;39.10;;;;;;6208594;23;20183;-86
2023/03/10 04:38:44;;;;;;;2.53;0.63;;;17.90;39.10;;;;;;6209439;23;20144;-86
2023/03/10 04:41:11;;;;;;;0.70;0.68;;;17.90;39.10;;;;;;6208468;23;20488;-87
2023/03/10 04:43:37;;;;;;;2.05;0.63;;;17.90;39.10;;;;;;6233991;23;20216;-87
2023/03/10 04:46:03;;;;;;;1.55;0.80;;;17.90;39.10;;;;;;6209243;23;20142;-87
2023/03/10 04:48:30;;;;;;;0.80;0.60;;;17.90;39.10;;;;;;6233857;23;20130;-87
2023/03/10 04:50:57;;;;;;;1.60;0.90;;;17.80;39.10;;;;;;6209000;23;20145;-87
2023/03/10 04:53:23;;;;;;;1.77;0.70;;;17.90;39.10;;;;;;6208122;23;20192;-87
2023/03/10 04:55:50;;;;;;;2.65;0.65;;;17.90;39.10;;;;;;6209253;23;20142;-87
2023/03/10 04:58:17;;;;;;;1.55;0.75;;;17.90;39.40;;;;;;6209353;23;20142;-87
2023/03/10 05:00:45;;;;;;;1.05;0.65;;;17.90;39.10;;;;;;6258702;23;20184;-87
2023/03/10 05:03:13;;;;;;;1.10;0.55;;;17.90;39.10;;;;;;6209028;23;20492;-87
2023/03/10 05:05:40;;;;;;;2.10;0.75;;;17.90;39.10;;;;;;6232727;23;20592;-87
2023/03/10 05:08:05;;;;;;;1.15;0.70;;;17.90;39.10;;;;;;6209062;23;20244;-87
2023/03/10 05:10:35;;;;;;;0.65;0.60;;;18.00;39.20;;;;;;6208405;23;20224;-87
2023/03/10 05:13:01;;;;;;;1.10;0.60;;;17.90;39.10;;;;;;6234022;23;20155;-87
2023/03/10 05:15:33;;;;;;;3.17;0.60;;;17.90;39.10;;;;;;6233974;23;20193;-87
2023/03/10 05:17:59;;;;;;;0.52;0.52;;;17.80;39.10;;;;;;6233491;23;20184;-87
2023/03/10 05:20:25;;;;;;;1.48;0.60;;;17.90;39.10;;;;;;6208824;23;20197;-87
2023/03/10 05:22:56;;;;;;;2.38;0.70;;;17.80;39.10;;;;;;6208737;23;20579;-87
2023/03/10 05:25:22;;;;;;;0.70;0.60;;;17.90;39.20;;;;;;6233260;23;20145;-87
2023/03/10 05:27:49;;;;;;;1.02;0.70;;;17.90;39.10;;;;;;6208212;23;20152;-87
2023/03/10 05:30:19;;;;;;;0.93;0.63;;;17.80;39.10;;;;;;6258090;23;20141;-87
2023/03/10 05:32:45;;;;;;;1.25;0.80;;;17.90;39.10;;;;;;6208981;23;20149;-86
2023/03/10 05:35:12;;;;;;;1.13;0.60;;;17.90;39.10;;;;;;6208247;23;20141;-87
2023/03/10 05:37:42;;;;;;;2.80;0.70;;;17.90;39.10;;;;;;6207959;23;20202;-89
2023/03/10 05:40:13;;;;;;;1.80;0.63;;;17.80;39.20;;;;;;6233668;23;20158;-87
2023/03/10 05:42:39;;;;;;;1.42;0.60;;;17.80;39.20;;;;;;6233875;23;20129;-87
2023/03/10 05:45:07;;;;;;;3.38;0.63;;;17.80;39.20;;;;;;6258700;23;20133;-87
2023/03/10 05:47:33;;;;;;;0.63;0.50;;;17.90;39.30;;;;;;6207796;23;20149;-87
2023/03/10 05:50:00;;;;;;;0.80;0.60;;;17.80;39.30;;;;;;6207784;23;20485;-87
2023/03/10 05:52:26;;;;;;;0.63;0.40;;;17.70;39.20;;;;;;6208429;23;20142;-88
2023/03/10 05:54:52;;;;;;;1.17;0.70;;;17.80;39.20;;;;;;6207066;23;20160;-87
2023/03/10 05:57:19;;;;;;;1.95;0.80;;;17.80;39.20;;;;;;6229509;23;20157;-88
2023/03/10 05:59:57;;;;;;;2.58;0.60;;;17.80;39.30;;;;;;6253930;23;20140;-88
2023/03/10 06:02:26;;;;;;;1.17;0.40;;;17.80;39.20;;;;;;6191114;23;20153;-88
2023/03/10 06:04:55;;;;;;;0.63;0.63;;;17.80;39.10;;;;;;6227306;23;20154;-88
2023/03/10 06:07:48;;;;;;;0.85;0.73;;;17.80;39.10;;;;;;6150300;23;20190;-88
2023/03/10 06:10:16;;;;;;;0.90;0.65;;;17.80;39.30;;;;;;6220002;23;20153;-87
2023/03/10 06:12:43;;;;;;;1.05;0.80;;;17.80;39.20;;;;;;6177784;23;20266;-86
2023/03/10 06:15:10;;;;;;;1.40;0.70;;;17.80;39.10;;;;;;6176985;23;20146;-86
2023/03/10 06:17:35;;;;;;;2.45;0.80;;;17.80;39.20;;;;;;6151752;23;20212;-87
2023/03/10 06:20:03;;;;;;;0.73;0.60;;;17.80;39.20;;;;;;6176030;23;20154;-88
2023/03/10 06:22:29;;;;;;;0.95;0.63;;;17.80;39.30;;;;;;6176031;23;20150;-86
2023/03/10 06:24:56;;;;;;;0.77;0.57;;;17.90;39.30;;;;;;6178233;23;20608;-87
2023/03/10 06:27:34;;;;;;;1.50;0.80;;;17.80;39.30;;;;;;6199699;23;20165;-88
2023/03/10 06:30:01;;;;;;;0.85;0.63;;;17.80;39.30;;;;;;6153103;23;20154;-87
2023/03/10 06:32:30;;;;;;;1.17;0.60;;;17.80;39.20;;;;;;6191120;22;20247;-88
2023/03/10 06:34:59;;;;;;;1.40;0.80;;;17.90;39.20;;;;;;6209277;23;20184;-87
2023/03/10 06:37:27;;;;;;;1.27;0.70;;;17.80;39.20;;;;;;6234084;23;20154;-88
2023/03/10 06:40:03;;;;;;;1.52;0.65;;;17.80;39.20;;;;;;6209154;23;20208;-87
2023/03/10 06:42:31;;;;;;;0.50;0.40;;;17.80;39.20;;;;;;6209075;23;20152;-86
2023/03/10 06:45:05;;;;;;;0.68;0.55;;;17.80;39.30;;;;;;6208489;23;20209;-87
2023/03/10 06:47:35;;;;;;;1.17;0.65;;;17.80;39.20;;;;;;6150640;23;20170;-87
2023/03/10 06:50:07;;;;;;;0.85;0.60;;;17.80;39.10;;;;;;6174898;23;20170;-87
2023/03/10 06:52:41;;;;;;;0.63;0.60;;;17.80;39.20;;;;;;6169381;23;20155;-87
2023/03/10 06:55:18;;;;;;;3.88;0.75;;;17.90;39.30;;;;;;6082157;23;20153;-86
2023/03/10 06:57:44;;;;;;;1.00;0.65;;;17.80;39.30;;;;;;6025100;23;20185;-87
2023/03/10 07:00:14;;;;;;;1.10;0.70;;;17.80;39.40;;;;;;6000232;23;20195;-87
2023/03/10 07:02:41;;;;;;;1.73;0.80;;;17.80;39.30;;;;;;5978637;23;20150;-87
2023/03/10 07:05:15;;;;;;;1.42;0.73;;;17.80;39.40;;;;;;5973552;24;20184;-87
2023/03/10 07:07:45;;;;;;;0.98;0.68;;;17.80;39.20;;;;;;5954787;24;20656;-86
2023/03/10 07:10:29;;;;;;;1.30;0.68;;;17.90;39.30;;;;;;5945774;24;20164;-87
2023/03/10 07:12:59;;;;;;;1.50;0.73;;;17.80;39.30;;;;;;5940611;24;20212;-87
2023/03/10 07:15:38;;;;;;;1.02;0.47;;;17.80;39.30;;;;;;5941155;24;20188;-88
2023/03/10 07:18:05;;;;;;;1.45;0.77;;;17.80;39.30;;;;;;5940232;24;20217;-87
2023/03/10 07:20:43;;;;;;;1.20;0.52;;;17.80;39.30;;;;;;5940435;24;20157;-87
2023/03/10 07:23:19;;;;;;;1.95;0.80;;;17.80;39.30;;;;;;5891619;24;20210;-87
2023/03/10 07:25:56;;;;;;;0.80;0.60;;;17.80;39.20;;;;;;5958632;23;20161;-88
2023/03/10 07:28:27;;;;;;;1.90;0.70;;;17.80;39.30;;;;;;6022813;23;20162;-87
2023/03/10 07:30:56;;;;;;;0.55;0.55;;;17.80;39.40;;;;;;6022580;23;20162;-87
2023/03/10 07:33:28;;;;;;;0.75;0.60;;;17.80;39.30;;;;;;6022749;23;20159;-87
2023/03/10 07:35:59;;;;;;;0.68;0.68;;;17.80;39.30;;;;;;6053944;23;20158;-87
2023/03/10 07:38:34;;;;;;;0.88;0.80;;;17.80;39.20;;;;;;6052942;23;20150;-87
2023/03/10 07:41:12;;;;;;;1.13;0.80;;;17.90;39.20;;;;;;6052727;23;20258;-88
2023/03/10 07:43:37;;;;;;;0.70;0.60;;;17.90;38.70;;;;;;6023108;23;20546;-88
2023/03/10 07:46:09;;;;;;;0.82;0.55;;;18.00;38.80;;;;;;6001333;23;20161;-89
2023/03/10 07:48:35;;;;;;;1.52;0.70;;;18.10;38.70;;;;;;6001862;23;20154;-88
2023/03/10 07:51:04;;;;;;;2.63;0.70;;;18.10;38.50;;;;;;6000649;23;20162;-88
2023/03/10 07:53:51;;;;;;;0.80;0.60;;;18.10;38.50;;;;;;6001202;23;20182;-88
2023/03/10 07:56:20;;;;;;;1.80;0.60;;;18.20;38.20;;;;;;6001258;23;20213;-88
2023/03/10 07:58:51;;;;;;;1.15;0.70;;;18.30;38.20;;;;;;6001198;23;20158;-88
2023/03/10 08:01:18;;;;;;;1.48;0.60;;;18.30;38.10;;;;;;5946312;24;20159;-88
2023/03/10 08:03:57;;;;;;;0.80;0.77;;;18.30;38.00;;;;;;5972312;23;20163;-89
2023/03/10 08:06:24;;;;;;;0.93;0.55;;;18.30;38.10;;;;;;5992160;23;20214;-88
2023/03/10 08:08:57;;;;;;;1.75;0.55;;;18.30;38.10;;;;;;5976895;23;20159;-88
2023/03/10 08:11:23;;;;;;;1.77;0.75;;;18.30;38.00;;;;;;5977624;23;20214;-88
2023/03/10 08:13:52;;;;;;;2.38;0.50;;;18.30;37.80;;;;;;6005634;23;20176;-88
2023/03/10 08:16:21;;;;;;;1.02;0.60;;;18.30;38.10;;;;;;6027988;23;20186;-88
2023/03/10 08:18:50;;;;;;;1.55;0.70;;;18.30;37.80;;;;;;6052358;23;20158;-88
2023/03/10 08:21:16;;;;;;;0.98;0.70;;;18.30;37.80;;;;;;6028826;23;20206;-88
2023/03/10 08:23:46;;;;;;;0.82;0.50;;;18.40;37.80;;;;;;6058354;23;20153;-88
2023/03/10 08:26:13;;;;;;;0.98;0.70;;;18.40;37.60;;;;;;6081117;23;20163;-88
2023/03/10 08:28:46;;;;;;;0.50;0.50;;;18.40;37.80;;;;;;6090858;23;20206;-88
2023/03/10 08:31:16;;;;;;;0.75;0.50;;;18.30;37.50;;;;;;6090734;23;20168;-88
2023/03/10 08:33:47;;;;;;;0.93;0.55;;;18.40;37.80;;;;;;6114975;23;20156;-89
2023/03/10 08:36:17;;;;;;;0.85;0.60;;;18.30;37.60;;;;;;6089300;23;20188;-90
2023/03/10 08:38:50;;;;;;;0.93;0.50;;;18.40;37.80;;;;;;6053240;23;20153;-89
2023/03/10 08:41:33;;;;;;;0.65;0.52;;;18.40;37.70;;;;;;6056960;23;20293;-89
2023/03/10 08:44:04;;;;;;;1.40;0.60;;;18.30;37.70;;;;;;6049681;23;20176;-89
2023/03/10 08:46:31;;;;;;;0.77;0.60;;;18.40;37.60;;;;;;6056285;23;20525;-90
2023/03/10 08:49:06;;;;;;;0.40;0.40;;;18.40;37.60;;;;;;6054334;23;20157;-88
2023/03/10 08:51:45;;;;;;;0.90;0.60;;;18.40;37.40;;;;;;6055934;23;20171;-87
2023/03/10 08:54:18;;;;;;;1.75;0.50;;;18.50;37.50;;;;;;6031342;23;20157;-88
2023/03/10 08:56:51;;;;;;;0.70;0.57;;;18.40;37.50;;;;;;6020185;23;20211;-89
2023/03/10 08:59:23;;;;;;;0.70;0.50;;;18.40;37.50;;;;;;6020854;23;20158;-88
2023/03/10 09:01:59;;;;;;;1.27;0.60;;;18.40;37.80;;;;;;6000113;23;20162;-89
2023/03/10 09:05:02;;;;;;;1.15;0.63;;;18.40;37.70;;;;;;6023160;23;20146;-89
2023/03/10 09:08:10;;;;;;;0.82;0.60;;;18.40;37.80;;;;;;5995566;23;20221;-88
2023/03/10 09:10:53;;;;;;;;;;;;;;;;;;;;;
2023/03/10 09:13:47;;;;;;;3.60;0.65;;;18.40;37.60;;;;;;5889520;24;20646;-89
2023/03/10 09:16:19;;;;;;;2.08;0.85;;;18.50;37.40;;;;;;5851622;24;20166;-88
2023/03/10 09:18:56;;;;;;;2.42;0.63;;;18.50;37.30;;;;;;5887760;24;20154;-88
2023/03/10 09:21:35;;;;;;;1.75;0.80;;;18.40;37.30;;;;;;5887273;24;20193;-87
2023/03/10 09:24:02;;;;;;;2.72;0.55;;;18.50;37.40;;;;;;5913329;24;20208;-88
2023/03/10 09:26:31;;;;;;;2.10;0.60;;;18.50;37.30;;;;;;5890105;24;20161;-87
2023/03/10 09:29:10;;;;;;;2.40;0.60;;;18.50;37.30;;;;;;5843171;24;20188;-88
2023/03/10 09:31:43;;;;;;;1.33;0.80;;;18.50;37.50;;;;;;5907482;24;20248;-89
2023/03/10 09:34:11;;;;;;;10.60;1.35;;;18.50;37.40;;;;;;5902624;24;20231;-89
2023/03/10 09:36:47;;;;;;;4.45;0.95;;;18.50;38.20;;;;;;5879229;24;20195;-88
2023/03/10 09:39:15;;;;;;;3.42;1.08;;;18.50;37.60;;;;;;5850774;24;20604;-88
2023/03/10 09:42:20;;;;;;;9.80;1.00;;;18.50;37.70;;;;;;5852664;24;20163;-88
2023/03/10 09:45:03;;;;;;;11.07;0.88;;;18.50;37.60;;;;;;5827987;24;20601;-89
2023/03/10 09:48:09;;;;;;;17.60;1.63;;;18.60;37.50;;;;;;5879246;24;20166;-88
2023/03/10 09:51:02;;;;;;;20.10;1.73;;;18.50;37.70;;;;;;6044518;23;20187;-89
2023/03/10 09:53:49;;;;;;;8.60;1.10;;;18.50;37.90;;;;;;6024467;23;20162;-89
2023/03/10 09:56:49;;;;;;;;;;;;;;;;;;;;;
2023/03/10 10:02:15;;;;;;;12.93;1.40;;;18.60;37.60;;;;;;5103868;27;20526;-89
2023/03/10 10:04:41;;;;;;;7.80;0.93;;;18.60;38.00;;;;;;5026001;28;20198;-89
2023/03/10 10:07:32;;;;;;;10.88;1.05;;;18.60;37.70;;;;;;5011549;28;20163;-89
2023/03/10 10:10:08;;;;;;;7.05;0.98;;;18.70;37.80;;;;;;5009766;28;20179;-88
2023/03/10 10:13:05;;;;;;;8.70;1.15;;;18.60;37.80;;;;;;4987945;28;20215;-89
2023/03/10 10:15:31;;;;;;;5.65;1.02;;;18.60;37.70;;;;;;4986357;28;20188;-89
2023/03/10 10:18:11;;;;;;;6.93;0.95;;;18.60;37.90;;;;;;5002539;28;20191;-89
2023/03/10 10:24:06;;;;;;;5.30;0.75;;;18.60;37.80;;;;;;5006027;28;20276;-89
2023/03/10 10:26:56;;;;;;;4.68;0.90;;;18.60;37.70;;;;;;4983562;28;20184;-90
2023/03/10 10:29:45;;;;;;;6.55;0.70;;;18.70;38.00;;;;;;4988673;28;20255;-87
2023/03/10 10:32:27;;;;;;;5.25;0.73;;;18.70;38.20;;;;;;4969217;28;20241;-90
2023/03/10 10:35:26;;;;;;;5.28;1.10;;;18.70;38.30;;;;;;4937883;29;20390;-89
2023/03/10 10:38:24;;;;;;;4.25;0.80;;;18.70;38.10;;;;;;4894940;29;20248;-89
2023/03/10 10:42:23;;;;;;;5.72;0.82;;;18.70;37.90;;;;;;4916667;29;20749;-90
2023/03/10 10:45:07;;;;;;;5.38;0.88;;;18.70;37.80;;;;;;4926689;29;20193;-89
2023/03/10 10:48:12;;;;;;;6.65;0.73;;;18.70;38.00;;;;;;4912039;29;20600;-90
2023/03/10 10:55:01;;;;;;;4.13;0.95;;;18.80;37.70;;;;;;4835623;29;20275;-90
2023/03/10 10:57:45;;;;;;;;;;;;;;;;;;;;;
2023/03/10 11:01:13;;;;;;;;;;;;;;;;;;;;;
2023/03/10 11:03:27;;;;;;;6.35;0.90;;;18.70;37.70;;;;;;4758597;30;20211;-88
2023/03/10 11:06:34;;;;;;;1.48;0.65;;;18.70;37.60;;;;;;4771290;30;20196;-90
2023/03/10 11:09:44;;;;;;;2.63;0.68;;;18.80;37.80;;;;;;4775931;30;20276;-90
2023/03/10 11:13:54;;;;;;;;;;;;;;;;;;;;;
2023/03/10 11:20:19;;;;;;;;;;;;;;;;;;;;;
2023/03/10 11:27:00;;;;;;;;;;;;;;;;;;;;;
2023/03/10 11:30:13;;;;;;;;;;;;;;;;;;;;;
2023/03/10 11:33:21;;;;;;;1.15;0.70;;;18.90;37.30;;;;;;4890114;29;20219;-89
2023/03/10 11:36:38;;;;;;;1.88;0.50;;;18.90;37.30;;;;;;4921322;29;20190;-89
2023/03/10 11:40:05;;;;;;;;;;;;;;;;;;;;;
2023/03/10 11:43:32;;;;;;;;;;;;;;;;;;;;;
2023/03/10 11:46:28;;;;;;;2.88;0.60;;;18.90;37.00;;;;;;4878111;29;20722;-90
2023/03/10 11:50:20;;;;;;;5.18;0.90;;;18.90;37.10;;;;;;4842250;29;20210;-89
2023/03/10 11:53:03;;;;;;;;;;;;;;;;;;;;;
2023/03/10 11:56:19;;;;;;;;;;;;;;;;;;;;;
2023/03/10 12:00:00;;;;;;;0.80;0.60;;;18.90;37.00;;;;;;4762509;30;20288;-89
2023/03/10 12:06:20;;;;;;;1.45;0.55;;;18.90;36.90;;;;;;4798335;30;20194;-89
2023/03/10 12:10:01;;;;;;;;;;;;;;;;;;;;;
2023/03/10 12:12:35;;;;;;;0.60;0.52;;;18.90;37.00;;;;;;4757409;30;20204;-85
2023/03/10 12:15:23;;;;;;;2.70;0.50;;;18.90;37.10;;;;;;4743792;30;20549;-89
2023/03/10 12:17:53;;;;;;;1.00;0.50;;;18.90;37.30;;;;;;4743730;30;20193;-88
2023/03/10 12:20:22;;;;;;;0.98;0.60;;;19.00;37.00;;;;;;4725036;30;20221;-89
2023/03/10 12:22:55;;;;;;;1.30;0.50;;;19.00;36.90;;;;;;4760239;30;20192;-89
2023/03/10 12:25:44;;;;;;;2.55;0.50;;;19.10;36.70;;;;;;4775404;30;20336;-88
2023/03/10 12:28:23;;;;;;;2.03;0.50;;;19.00;36.80;;;;;;4772034;30;20235;-89
2023/03/10 12:32:21;;;;;;;1.42;0.60;;;19.00;37.10;;;;;;4774966;30;20277;-90
2023/03/10 12:35:05;;;;;;;1.23;0.63;;;19.00;37.20;;;;;;4806074;29;20243;-90
2023/03/10 12:38:00;;;;;;;0.40;0.40;;;18.90;37.60;;;;;;4804476;29;20212;-89
2023/03/10 12:48:06;;;;;;;0.90;0.50;;;18.90;37.10;;;;;;4837864;29;20237;-88
2023/03/10 12:51:21;;;;;;;1.65;0.40;;;18.90;37.10;;;;;;4833217;29;20182;-89
2023/03/10 12:54:01;;;;;;;0.60;0.40;;;18.90;37.20;;;;;;4832095;29;20198;-88
2023/03/10 12:57:10;;;;;;;1.67;0.57;;;18.90;37.20;;;;;;4830509;29;20191;-88
2023/03/10 13:00:11;;;;;;;1.45;0.40;;;18.80;37.20;;;;;;4812135;29;20211;-89
2023/03/10 13:03:20;;;;;;;0.52;0.52;;;18.80;37.20;;;;;;4830826;29;20230;-90
2023/03/10 13:07:30;;;;;;;1.85;0.50;;;18.90;37.10;;;;;;4833085;29;20189;-90
2023/03/10 13:10:21;;;;;;;1.38;0.55;;;18.80;37.30;;;;;;4823873;29;20185;-89
2023/03/10 13:13:30;;;;;;;2.88;0.60;;;18.80;37.30;;;;;;4869087;29;20264;-89
2023/03/10 13:16:05;;;;;;;1.05;0.50;;;18.80;37.30;;;;;;4812572;29;20202;-89
2023/03/10 13:19:00;;;;;;;0.90;0.45;;;18.80;37.30;;;;;;4799351;29;20223;-90
2023/03/10 13:22:07;;;;;;;0.70;0.60;;;18.80;37.40;;;;;;4800723;29;20771;-89
2023/03/10 13:24:43;;;;;;;0.57;0.52;;;18.80;37.50;;;;;;4755667;30;20197;-89
2023/03/10 13:27:36;;;;;;;;;;;;;;;;;;;;;
2023/03/10 13:30:27;;;;;;;0.52;0.45;;;18.70;37.70;;;;;;4792086;29;20295;-87
2023/03/10 13:33:01;;;;;;;0.63;0.52;;;18.70;37.60;;;;;;4789904;29;20198;-87
2023/03/10 13:35:40;;;;;;;1.15;0.45;;;18.70;38.30;;;;;;4797461;29;20229;-88
2023/03/10 13:38:23;;;;;;;0.65;0.40;;;18.80;37.50;;;;;;4797802;29;20199;-89
2023/03/10 13:41:01;;;;;;;3.30;0.57;;;18.80;37.60;;;;;;4797407;30;20230;-88
2023/03/10 13:43:35;;;;;;;0.50;0.43;;;18.80;37.50;;;;;;4795831;30;20187;-89
2023/03/10 13:46:14;;;;;;;1.60;0.60;;;18.80;37.50;;;;;;4798668;29;20186;-87
2023/03/10 13:48:42;;;;;;;0.73;0.52;;;18.80;37.30;;;;;;4814824;29;20190;-88
2023/03/10 13:51:28;;;;;;;1.15;0.70;;;18.80;37.30;;;;;;4826460;29;20273;-87
2023/03/10 13:54:20;;;;;;;0.50;0.40;;;18.80;37.30;;;;;;4831508;29;20217;-89
2023/03/10 13:56:47;;;;;;;1.17;0.68;;;18.80;37.40;;;;;;4808306;29;20233;-88
2023/03/10 13:59:14;;;;;;;1.77;0.52;;;18.80;37.50;;;;;;4808094;29;20178;-86
2023/03/10 14:01:45;;;;;;;0.60;0.60;;;18.80;37.40;;;;;;4916677;28;20586;-87
2023/03/10 14:04:15;;;;;;;1.33;0.52;;;18.80;37.50;;;;;;4945990;28;20180;-88
2023/03/10 14:06:41;;;;;;;1.60;0.68;;;18.70;37.40;;;;;;4960851;28;20751;-88
2023/03/10 14:09:19;;;;;;;0.68;0.55;;;18.80;37.40;;;;;;4985038;28;20314;-89
2023/03/10 14:11:47;;;;;;;0.60;0.50;;;18.80;37.30;;;;;;5016913;28;20553;-89
2023/03/10 14:14:27;;;;;;;2.72;0.45;;;18.80;37.30;;;;;;5018404;28;20770;-89
2023/03/10 14:16:56;;;;;;;0.65;0.40;;;18.80;37.50;;;;;;5021203;28;20244;-89
2023/03/10 14:19:45;;;;;;;0.60;0.60;;;18.70;37.60;;;;;;5037937;28;20195;-89